sensor_id;sensor_type;location;lat;lon;timestamp;temperature;humidity
5276;DHT22;2661;50.786;12.728;2023-04-08T00:02:01;4.90;99.90
5276;DHT22;2661;50.786;12.728;2023-04-08T00:04:29;4.80;99.90
5276;DHT22;2661;50.786;12.728;2023-04-08T00:06:57;4.90;99.90
5276;DHT22;2661;50.786;12.728;2023-04-08T00:09:23;4.80;99.90
5276;DHT22;2661;50.786;12.728;2023-04-08T00:11:50;4.80;99.90
5276;DHT22;2661;50.786;12.728;2023-04-08T00:14:17;4.80;99.90
5276;DHT22;2661;50.786;12.728;2023-04-08T00:16:43;4.80;99.90
5276;DHT22;2661;50.786;12.728;2023-04-08T00:19:10;4.70;99.90
5276;DHT22;2661;50.786;12.728;2023-04-08T00:21:37;4.80;1.00
5276;DHT22;2661;50.786;12.728;2023-04-08T00:24:04;4.70;99.90
5276;DHT22;2661;50.786;12.728;2023-04-08T00:26:31;4.70;1.00
5276;DHT22;2661;50.786;12.728;2023-04-08T00:28:58;4.70;1.00
5276;DHT22;2661;50.786;12.728;2023-04-08T00:31:24;4.70;1.00
5276;DHT22;2661;50.786;12.728;2023-04-08T00:33:51;4.70;1.00
5276;DHT22;2661;50.786;12.728;2023-04-08T00:36:19;4.70;1.00
5276;DHT22;2661;50.786;12.728;2023-04-08T00:38:45;4.60;1.00
5276;DHT22;2661;50.786;12.728;2023-04-08T00:41:12;4.50;1.00
5276;DHT22;2661;50.786;12.728;2023-04-08T00:43:39;4.60;1.00
5276;DHT22;2661;50.786;12.728;2023-04-08T00:46:05;4.60;1.00
5276;DHT22;2661;50.786;12.728;2023-04-08T00:48:32;4.60;1.00
5276;DHT22;2661;50.786;12.728;2023-04-08T00:50:59;4.60;1.00
5276;DHT22;2661;50.786;12.728;2023-04-08T00:53:25;4.60;1.00
5276;DHT22;2661;50.786;12.728;2023-04-08T00:55:52;4.50;1.00
5276;DHT22;2661;50.786;12.728;2023-04-08T00:58:19;4.50;1.00
5276;DHT22;2661;50.786;12.728;2023-04-08T01:00:49;4.50;1.00
5276;DHT22;2661;50.786;12.728;2023-04-08T01:06:10;4.50;1.00
5276;DHT22;2661;50.786;12.728;2023-04-08T01:08:38;4.50;1.00
5276;DHT22;2661;50.786;12.728;2023-04-08T01:11:07;4.40;1.00
5276;DHT22;2661;50.786;12.728;2023-04-08T01:13:36;4.30;1.00
5276;DHT22;2661;50.786;12.728;2023-04-08T01:16:04;4.40;1.00
5276;DHT22;2661;50.786;12.728;2023-04-08T01:18:32;4.50;1.00
5276;DHT22;2661;50.786;12.728;2023-04-08T01:20:59;4.50;1.00
5276;DHT22;2661;50.786;12.728;2023-04-08T01:26:10;4.60;1.00
5276;DHT22;2661;50.786;12.728;2023-04-08T01:28:37;4.50;1.00
5276;DHT22;2661;50.786;12.728;2023-04-08T01:31:04;4.60;25.50
5276;DHT22;2661;50.786;12.728;2023-04-08T01:33:31;4.60;60.10
5276;DHT22;2661;50.786;12.728;2023-04-08T01:35:59;4.50;1.00
5276;DHT22;2661;50.786;12.728;2023-04-08T01:38:26;4.50;99.90
5276;DHT22;2661;50.786;12.728;2023-04-08T01:40:53;4.60;69.20
5276;DHT22;2661;50.786;12.728;2023-04-08T01:43:21;4.60;3.00
5276;DHT22;2661;50.786;12.728;2023-04-08T01:45:47;4.60;1.00
5276;DHT22;2661;50.786;12.728;2023-04-08T01:48:15;4.60;1.00
5276;DHT22;2661;50.786;12.728;2023-04-08T01:50:42;4.50;21.30
5276;DHT22;2661;50.786;12.728;2023-04-08T01:53:09;4.50;1.00
5276;DHT22;2661;50.786;12.728;2023-04-08T01:55:37;4.50;1.00
5276;DHT22;2661;50.786;12.728;2023-04-08T01:58:04;4.50;1.00
5276;DHT22;2661;50.786;12.728;2023-04-08T02:00:32;4.50;1.00
5276;DHT22;2661;50.786;12.728;2023-04-08T02:03:00;4.60;1.00
5276;DHT22;2661;50.786;12.728;2023-04-08T02:05:28;4.60;1.00
5276;DHT22;2661;50.786;12.728;2023-04-08T02:07:55;4.60;1.00
5276;DHT22;2661;50.786;12.728;2023-04-08T02:10:21;4.70;1.00
5276;DHT22;2661;50.786;12.728;2023-04-08T02:12:48;4.70;1.00
5276;DHT22;2661;50.786;12.728;2023-04-08T02:15:15;4.80;1.00
5276;DHT22;2661;50.786;12.728;2023-04-08T02:20:32;4.60;1.00
5276;DHT22;2661;50.786;12.728;2023-04-08T02:23:02;4.70;1.00
5276;DHT22;2661;50.786;12.728;2023-04-08T02:25:31;4.60;1.00
5276;DHT22;2661;50.786;12.728;2023-04-08T02:27:58;4.50;1.00
5276;DHT22;2661;50.786;12.728;2023-04-08T02:30:25;4.50;1.00
5276;DHT22;2661;50.786;12.728;2023-04-08T02:32:53;4.50;1.00
5276;DHT22;2661;50.786;12.728;2023-04-08T02:35:20;4.60;1.00
5276;DHT22;2661;50.786;12.728;2023-04-08T02:37:48;4.60;1.00
5276;DHT22;2661;50.786;12.728;2023-04-08T02:40:31;4.60;1.00
5276;DHT22;2661;50.786;12.728;2023-04-08T02:42:58;4.70;1.00
5276;DHT22;2661;50.786;12.728;2023-04-08T02:45:37;4.70;1.00
5276;DHT22;2661;50.786;12.728;2023-04-08T02:48:06;4.70;1.00
5276;DHT22;2661;50.786;12.728;2023-04-08T02:50:32;4.80;1.00
5276;DHT22;2661;50.786;12.728;2023-04-08T02:52:59;4.90;1.00
5276;DHT22;2661;50.786;12.728;2023-04-08T02:55:25;4.90;1.00
5276;DHT22;2661;50.786;12.728;2023-04-08T02:57:52;4.90;1.00
5276;DHT22;2661;50.786;12.728;2023-04-08T03:00:19;4.80;1.00
5276;DHT22;2661;50.786;12.728;2023-04-08T03:02:45;4.70;1.00
5276;DHT22;2661;50.786;12.728;2023-04-08T03:05:12;4.70;1.00
5276;DHT22;2661;50.786;12.728;2023-04-08T03:07:39;4.60;5.10
5276;DHT22;2661;50.786;12.728;2023-04-08T03:10:06;4.60;99.90
5276;DHT22;2661;50.786;12.728;2023-04-08T03:12:32;4.70;91.40
5276;DHT22;2661;50.786;12.728;2023-04-08T03:14:59;4.80;1.00
5276;DHT22;2661;50.786;12.728;2023-04-08T03:17:27;4.80;1.00
5276;DHT22;2661;50.786;12.728;2023-04-08T03:19:53;4.80;1.00
5276;DHT22;2661;50.786;12.728;2023-04-08T03:22:20;4.80;1.00
5276;DHT22;2661;50.786;12.728;2023-04-08T03:24:46;4.80;46.60
5276;DHT22;2661;50.786;12.728;2023-04-08T03:27:13;4.80;81.80
5276;DHT22;2661;50.786;12.728;2023-04-08T03:29:39;4.80;27.00
5276;DHT22;2661;50.786;12.728;2023-04-08T03:32:06;4.80;99.90
5276;DHT22;2661;50.786;12.728;2023-04-08T03:34:33;4.80;99.90
5276;DHT22;2661;50.786;12.728;2023-04-08T03:37:00;4.80;99.90
5276;DHT22;2661;50.786;12.728;2023-04-08T03:39:27;4.80;99.90
5276;DHT22;2661;50.786;12.728;2023-04-08T03:41:54;4.70;99.90
5276;DHT22;2661;50.786;12.728;2023-04-08T03:44:20;4.80;99.90
5276;DHT22;2661;50.786;12.728;2023-04-08T03:46:47;4.70;99.90
5276;DHT22;2661;50.786;12.728;2023-04-08T03:49:13;4.60;1.00
5276;DHT22;2661;50.786;12.728;2023-04-08T03:51:40;4.60;1.00
5276;DHT22;2661;50.786;12.728;2023-04-08T03:54:07;4.70;99.90
5276;DHT22;2661;50.786;12.728;2023-04-08T03:56:34;4.70;1.00
5276;DHT22;2661;50.786;12.728;2023-04-08T03:59:00;4.70;1.00
5276;DHT22;2661;50.786;12.728;2023-04-08T04:01:27;4.80;1.00
5276;DHT22;2661;50.786;12.728;2023-04-08T04:03:55;4.70;99.90
5276;DHT22;2661;50.786;12.728;2023-04-08T04:06:22;4.70;1.00
5276;DHT22;2661;50.786;12.728;2023-04-08T04:08:48;4.70;1.00
5276;DHT22;2661;50.786;12.728;2023-04-08T04:11:16;4.70;1.00
5276;DHT22;2661;50.786;12.728;2023-04-08T04:13:42;4.70;99.90
5276;DHT22;2661;50.786;12.728;2023-04-08T04:16:09;4.70;1.00
5276;DHT22;2661;50.786;12.728;2023-04-08T04:18:35;4.70;34.10
5276;DHT22;2661;50.786;12.728;2023-04-08T04:21:05;4.80;99.90
5276;DHT22;2661;50.786;12.728;2023-04-08T04:23:32;4.80;1.00
5276;DHT22;2661;50.786;12.728;2023-04-08T04:25:59;4.80;1.00
5276;DHT22;2661;50.786;12.728;2023-04-08T04:28:25;4.80;1.00
5276;DHT22;2661;50.786;12.728;2023-04-08T04:30:52;4.80;1.00
5276;DHT22;2661;50.786;12.728;2023-04-08T04:33:21;4.80;1.00
5276;DHT22;2661;50.786;12.728;2023-04-08T04:35:48;4.80;1.00
5276;DHT22;2661;50.786;12.728;2023-04-08T04:38:14;4.90;1.00
5276;DHT22;2661;50.786;12.728;2023-04-08T04:40:41;4.90;99.90
5276;DHT22;2661;50.786;12.728;2023-04-08T04:43:08;4.90;99.90
5276;DHT22;2661;50.786;12.728;2023-04-08T04:45:35;4.90;29.10
5276;DHT22;2661;50.786;12.728;2023-04-08T04:48:02;4.90;1.00
5276;DHT22;2661;50.786;12.728;2023-04-08T04:50:29;4.90;1.00
5276;DHT22;2661;50.786;12.728;2023-04-08T04:52:55;4.90;1.00
5276;DHT22;2661;50.786;12.728;2023-04-08T04:55:22;4.80;1.00
5276;DHT22;2661;50.786;12.728;2023-04-08T04:57:48;4.90;1.00
5276;DHT22;2661;50.786;12.728;2023-04-08T05:00:15;4.80;1.00
5276;DHT22;2661;50.786;12.728;2023-04-08T05:02:42;4.80;33.50
5276;DHT22;2661;50.786;12.728;2023-04-08T05:05:09;4.80;99.90
5276;DHT22;2661;50.786;12.728;2023-04-08T05:07:36;4.70;99.90
5276;DHT22;2661;50.786;12.728;2023-04-08T05:10:03;4.70;14.70
5276;DHT22;2661;50.786;12.728;2023-04-08T05:12:30;4.70;99.90
5276;DHT22;2661;50.786;12.728;2023-04-08T05:14:57;4.70;1.00
5276;DHT22;2661;50.786;12.728;2023-04-08T05:17:24;4.70;1.00
5276;DHT22;2661;50.786;12.728;2023-04-08T05:19:51;4.70;1.00
5276;DHT22;2661;50.786;12.728;2023-04-08T05:22:18;4.70;99.20
5276;DHT22;2661;50.786;12.728;2023-04-08T05:24:45;4.70;99.90
5276;DHT22;2661;50.786;12.728;2023-04-08T05:27:12;4.70;99.90
5276;DHT22;2661;50.786;12.728;2023-04-08T05:29:39;4.80;1.00
5276;DHT22;2661;50.786;12.728;2023-04-08T05:32:05;4.80;99.90
5276;DHT22;2661;50.786;12.728;2023-04-08T05:34:32;4.80;1.00
5276;DHT22;2661;50.786;12.728;2023-04-08T05:36:59;4.80;1.00
5276;DHT22;2661;50.786;12.728;2023-04-08T05:39:27;4.80;1.00
5276;DHT22;2661;50.786;12.728;2023-04-08T05:41:54;4.80;99.90
5276;DHT22;2661;50.786;12.728;2023-04-08T05:44:20;4.80;1.00
5276;DHT22;2661;50.786;12.728;2023-04-08T05:46:47;4.80;99.90
5276;DHT22;2661;50.786;12.728;2023-04-08T05:49:13;4.90;99.90
5276;DHT22;2661;50.786;12.728;2023-04-08T05:51:42;4.90;1.00
5276;DHT22;2661;50.786;12.728;2023-04-08T05:54:09;4.80;30.90
5276;DHT22;2661;50.786;12.728;2023-04-08T05:56:35;4.90;99.90
5276;DHT22;2661;50.786;12.728;2023-04-08T05:59:02;4.80;99.90
5276;DHT22;2661;50.786;12.728;2023-04-08T06:01:28;4.90;99.90
5276;DHT22;2661;50.786;12.728;2023-04-08T06:03:55;4.90;99.90
5276;DHT22;2661;50.786;12.728;2023-04-08T06:06:22;4.90;1.00
5276;DHT22;2661;50.786;12.728;2023-04-08T06:08:49;4.90;1.00
5276;DHT22;2661;50.786;12.728;2023-04-08T06:11:16;4.90;1.00
5276;DHT22;2661;50.786;12.728;2023-04-08T06:13:42;5.00;99.90
5276;DHT22;2661;50.786;12.728;2023-04-08T06:16:13;4.90;1.00
5276;DHT22;2661;50.786;12.728;2023-04-08T06:18:40;5.00;45.60
5276;DHT22;2661;50.786;12.728;2023-04-08T06:21:06;5.00;53.50
5276;DHT22;2661;50.786;12.728;2023-04-08T06:23:33;5.00;99.90
5276;DHT22;2661;50.786;12.728;2023-04-08T06:26:00;5.00;99.90
5276;DHT22;2661;50.786;12.728;2023-04-08T06:28:28;4.90;1.00
5276;DHT22;2661;50.786;12.728;2023-04-08T06:30:54;4.90;99.90
5276;DHT22;2661;50.786;12.728;2023-04-08T06:33:21;4.90;99.90
5276;DHT22;2661;50.786;12.728;2023-04-08T06:35:47;5.00;1.00
5276;DHT22;2661;50.786;12.728;2023-04-08T06:38:14;5.00;1.00
5276;DHT22;2661;50.786;12.728;2023-04-08T06:40:41;5.00;1.00
5276;DHT22;2661;50.786;12.728;2023-04-08T06:43:07;4.90;93.40
5276;DHT22;2661;50.786;12.728;2023-04-08T06:45:34;5.00;99.90
5276;DHT22;2661;50.786;12.728;2023-04-08T06:48:00;5.10;99.90
5276;DHT22;2661;50.786;12.728;2023-04-08T06:50:27;5.10;1.00
5276;DHT22;2661;50.786;12.728;2023-04-08T06:52:54;5.10;1.00
5276;DHT22;2661;50.786;12.728;2023-04-08T06:55:20;5.00;1.00
5276;DHT22;2661;50.786;12.728;2023-04-08T06:57:47;5.10;1.00
5276;DHT22;2661;50.786;12.728;2023-04-08T07:00:14;5.10;1.00
5276;DHT22;2661;50.786;12.728;2023-04-08T07:02:40;5.20;99.90
5276;DHT22;2661;50.786;12.728;2023-04-08T07:05:08;5.20;1.00
5276;DHT22;2661;50.786;12.728;2023-04-08T07:07:35;5.30;32.30
5276;DHT22;2661;50.786;12.728;2023-04-08T07:10:01;5.20;99.90
5276;DHT22;2661;50.786;12.728;2023-04-08T07:12:28;5.40;99.90
5276;DHT22;2661;50.786;12.728;2023-04-08T07:14:54;5.30;1.00
5276;DHT22;2661;50.786;12.728;2023-04-08T07:17:21;5.40;1.00
5276;DHT22;2661;50.786;12.728;2023-04-08T07:19:48;5.40;1.00
5276;DHT22;2661;50.786;12.728;2023-04-08T07:22:14;5.30;1.00
5276;DHT22;2661;50.786;12.728;2023-04-08T07:24:41;5.30;1.00
5276;DHT22;2661;50.786;12.728;2023-04-08T07:27:10;5.30;1.00
5276;DHT22;2661;50.786;12.728;2023-04-08T07:29:37;5.30;1.00
5276;DHT22;2661;50.786;12.728;2023-04-08T07:32:04;5.40;1.00
5276;DHT22;2661;50.786;12.728;2023-04-08T07:34:30;5.40;1.00
5276;DHT22;2661;50.786;12.728;2023-04-08T07:36:59;5.50;1.00
5276;DHT22;2661;50.786;12.728;2023-04-08T07:39:26;5.50;1.00
5276;DHT22;2661;50.786;12.728;2023-04-08T07:41:52;5.50;1.00
5276;DHT22;2661;50.786;12.728;2023-04-08T07:44:19;5.60;90.30
5276;DHT22;2661;50.786;12.728;2023-04-08T07:46:45;5.70;1.00
5276;DHT22;2661;50.786;12.728;2023-04-08T07:49:16;5.80;99.90
5276;DHT22;2661;50.786;12.728;2023-04-08T07:51:44;5.80;1.00
5276;DHT22;2661;50.786;12.728;2023-04-08T07:54:10;5.70;99.90
5276;DHT22;2661;50.786;12.728;2023-04-08T07:56:38;5.70;1.00
5276;DHT22;2661;50.786;12.728;2023-04-08T07:59:06;5.80;16.70
5276;DHT22;2661;50.786;12.728;2023-04-08T08:01:32;5.80;99.90
5276;DHT22;2661;50.786;12.728;2023-04-08T08:04:01;5.70;99.90
5276;DHT22;2661;50.786;12.728;2023-04-08T08:06:28;5.70;1.00
5276;DHT22;2661;50.786;12.728;2023-04-08T08:08:55;5.60;1.00
5276;DHT22;2661;50.786;12.728;2023-04-08T08:11:21;5.50;1.00
5276;DHT22;2661;50.786;12.728;2023-04-08T08:13:48;5.60;1.00
5276;DHT22;2661;50.786;12.728;2023-04-08T08:16:15;5.70;1.00
5276;DHT22;2661;50.786;12.728;2023-04-08T08:18:41;5.70;1.00
5276;DHT22;2661;50.786;12.728;2023-04-08T08:21:08;5.80;1.00
5276;DHT22;2661;50.786;12.728;2023-04-08T08:23:35;5.80;99.90
5276;DHT22;2661;50.786;12.728;2023-04-08T08:26:06;5.80;99.90
5276;DHT22;2661;50.786;12.728;2023-04-08T08:28:35;5.80;1.00
5276;DHT22;2661;50.786;12.728;2023-04-08T08:31:01;5.80;1.00
5276;DHT22;2661;50.786;12.728;2023-04-08T08:33:29;5.90;1.00
5276;DHT22;2661;50.786;12.728;2023-04-08T08:35:55;5.90;1.00
5276;DHT22;2661;50.786;12.728;2023-04-08T08:38:23;5.90;1.00
5276;DHT22;2661;50.786;12.728;2023-04-08T08:40:53;6.00;1.00
5276;DHT22;2661;50.786;12.728;2023-04-08T08:43:22;6.10;1.00
5276;DHT22;2661;50.786;12.728;2023-04-08T08:45:48;6.10;99.90
5276;DHT22;2661;50.786;12.728;2023-04-08T08:48:15;6.10;99.90
5276;DHT22;2661;50.786;12.728;2023-04-08T08:50:42;6.00;99.90
5276;DHT22;2661;50.786;12.728;2023-04-08T08:53:09;6.00;99.90
5276;DHT22;2661;50.786;12.728;2023-04-08T08:55:35;5.90;1.00
5276;DHT22;2661;50.786;12.728;2023-04-08T08:58:25;5.90;1.00
5276;DHT22;2661;50.786;12.728;2023-04-08T09:00:52;5.90;1.00
5276;DHT22;2661;50.786;12.728;2023-04-08T09:03:27;6.00;1.00
5276;DHT22;2661;50.786;12.728;2023-04-08T09:08:34;6.00;1.00
5276;DHT22;2661;50.786;12.728;2023-04-08T09:13:37;6.30;1.00
5276;DHT22;2661;50.786;12.728;2023-04-08T09:16:04;6.40;99.90
5276;DHT22;2661;50.786;12.728;2023-04-08T09:18:32;6.50;1.00
5276;DHT22;2661;50.786;12.728;2023-04-08T09:20:59;6.60;99.90
5276;DHT22;2661;50.786;12.728;2023-04-08T09:23:38;6.60;1.00
5276;DHT22;2661;50.786;12.728;2023-04-08T09:26:15;6.70;1.00
5276;DHT22;2661;50.786;12.728;2023-04-08T09:28:43;6.60;1.00
5276;DHT22;2661;50.786;12.728;2023-04-08T09:31:17;6.70;99.90
5276;DHT22;2661;50.786;12.728;2023-04-08T09:33:44;6.80;1.00
5276;DHT22;2661;50.786;12.728;2023-04-08T09:36:10;6.80;1.00
5276;DHT22;2661;50.786;12.728;2023-04-08T09:38:37;6.90;1.00
5276;DHT22;2661;50.786;12.728;2023-04-08T09:41:05;6.90;1.00
5276;DHT22;2661;50.786;12.728;2023-04-08T09:43:32;6.90;1.00
5276;DHT22;2661;50.786;12.728;2023-04-08T09:46:01;7.10;1.00
5276;DHT22;2661;50.786;12.728;2023-04-08T09:48:31;7.30;99.90
5276;DHT22;2661;50.786;12.728;2023-04-08T09:51:01;7.30;99.90
5276;DHT22;2661;50.786;12.728;2023-04-08T09:53:35;7.30;99.90
5276;DHT22;2661;50.786;12.728;2023-04-08T09:56:06;7.40;99.90
5276;DHT22;2661;50.786;12.728;2023-04-08T09:58:36;7.50;99.90
5276;DHT22;2661;50.786;12.728;2023-04-08T10:01:04;7.30;99.90
5276;DHT22;2661;50.786;12.728;2023-04-08T10:03:33;7.40;99.90
5276;DHT22;2661;50.786;12.728;2023-04-08T10:06:01;7.40;99.90
5276;DHT22;2661;50.786;12.728;2023-04-08T10:08:29;7.40;99.90
5276;DHT22;2661;50.786;12.728;2023-04-08T10:10:56;7.50;99.90
5276;DHT22;2661;50.786;12.728;2023-04-08T10:13:23;7.60;99.90
5276;DHT22;2661;50.786;12.728;2023-04-08T10:15:51;7.60;99.90
5276;DHT22;2661;50.786;12.728;2023-04-08T10:18:38;7.60;99.90
5276;DHT22;2661;50.786;12.728;2023-04-08T10:21:04;7.60;99.90
5276;DHT22;2661;50.786;12.728;2023-04-08T10:23:52;7.50;99.90
5276;DHT22;2661;50.786;12.728;2023-04-08T10:26:32;7.30;99.90
5276;DHT22;2661;50.786;12.728;2023-04-08T10:31:45;7.40;99.90
5276;DHT22;2661;50.786;12.728;2023-04-08T10:34:18;7.40;99.90
5276;DHT22;2661;50.786;12.728;2023-04-08T10:36:46;7.40;99.90
5276;DHT22;2661;50.786;12.728;2023-04-08T10:39:12;7.30;99.90
5276;DHT22;2661;50.786;12.728;2023-04-08T10:41:43;7.40;99.90
5276;DHT22;2661;50.786;12.728;2023-04-08T10:44:20;7.50;99.90
5276;DHT22;2661;50.786;12.728;2023-04-08T10:46:48;7.40;99.90
5276;DHT22;2661;50.786;12.728;2023-04-08T10:49:15;7.30;99.90
5276;DHT22;2661;50.786;12.728;2023-04-08T10:51:43;7.30;99.90
5276;DHT22;2661;50.786;12.728;2023-04-08T10:54:10;7.20;99.90
5276;DHT22;2661;50.786;12.728;2023-04-08T10:56:47;7.20;99.90
5276;DHT22;2661;50.786;12.728;2023-04-08T10:59:15;7.20;99.90
5276;DHT22;2661;50.786;12.728;2023-04-08T11:01:43;7.30;99.90
5276;DHT22;2661;50.786;12.728;2023-04-08T11:04:14;7.30;99.90
5276;DHT22;2661;50.786;12.728;2023-04-08T11:06:42;7.40;99.90
5276;DHT22;2661;50.786;12.728;2023-04-08T11:09:09;7.50;99.90
5276;DHT22;2661;50.786;12.728;2023-04-08T11:11:36;7.60;99.90
5276;DHT22;2661;50.786;12.728;2023-04-08T11:14:03;7.60;99.90
5276;DHT22;2661;50.786;12.728;2023-04-08T11:16:30;7.80;92.60
5276;DHT22;2661;50.786;12.728;2023-04-08T11:18:58;7.90;74.40
5276;DHT22;2661;50.786;12.728;2023-04-08T11:21:25;8.00;59.80
5276;DHT22;2661;50.786;12.728;2023-04-08T11:23:54;8.00;92.20
5276;DHT22;2661;50.786;12.728;2023-04-08T11:26:21;8.10;87.10
5276;DHT22;2661;50.786;12.728;2023-04-08T11:28:48;8.30;99.90
5276;DHT22;2661;50.786;12.728;2023-04-08T11:31:17;8.40;97.30
5276;DHT22;2661;50.786;12.728;2023-04-08T11:33:46;8.40;57.60
5276;DHT22;2661;50.786;12.728;2023-04-08T11:36:14;8.50;39.10
5276;DHT22;2661;50.786;12.728;2023-04-08T11:38:42;8.60;54.70
5276;DHT22;2661;50.786;12.728;2023-04-08T11:41:09;8.70;49.90
5276;DHT22;2661;50.786;12.728;2023-04-08T11:43:36;8.80;49.50
5276;DHT22;2661;50.786;12.728;2023-04-08T11:46:08;8.80;34.80
5276;DHT22;2661;50.786;12.728;2023-04-08T11:48:35;8.70;42.00
5276;DHT22;2661;50.786;12.728;2023-04-08T11:51:04;8.60;38.20
5276;DHT22;2661;50.786;12.728;2023-04-08T11:53:31;8.40;34.40
5276;DHT22;2661;50.786;12.728;2023-04-08T11:56:05;8.30;29.40
5276;DHT22;2661;50.786;12.728;2023-04-08T11:58:41;8.20;38.00
5276;DHT22;2661;50.786;12.728;2023-04-08T12:01:07;8.20;33.70
5276;DHT22;2661;50.786;12.728;2023-04-08T12:03:34;8.30;36.20
5276;DHT22;2661;50.786;12.728;2023-04-08T12:06:01;8.40;41.50
5276;DHT22;2661;50.786;12.728;2023-04-08T12:08:27;8.20;40.00
5276;DHT22;2661;50.786;12.728;2023-04-08T12:10:54;8.10;26.70
5276;DHT22;2661;50.786;12.728;2023-04-08T12:13:21;8.00;37.50
5276;DHT22;2661;50.786;12.728;2023-04-08T12:15:47;8.00;32.20
5276;DHT22;2661;50.786;12.728;2023-04-08T12:18:14;8.20;37.50
5276;DHT22;2661;50.786;12.728;2023-04-08T12:20:41;8.20;45.20
5276;DHT22;2661;50.786;12.728;2023-04-08T12:23:08;8.10;40.50
5276;DHT22;2661;50.786;12.728;2023-04-08T12:25:34;8.20;37.10
5276;DHT22;2661;50.786;12.728;2023-04-08T12:28:01;8.10;41.20
5276;DHT22;2661;50.786;12.728;2023-04-08T12:30:28;8.00;38.60
5276;DHT22;2661;50.786;12.728;2023-04-08T12:32:54;8.00;50.70
5276;DHT22;2661;50.786;12.728;2023-04-08T12:35:23;8.00;42.50
5276;DHT22;2661;50.786;12.728;2023-04-08T12:37:49;7.90;43.50
5276;DHT22;2661;50.786;12.728;2023-04-08T12:40:16;8.00;35.60
5276;DHT22;2661;50.786;12.728;2023-04-08T12:42:44;8.10;38.50
5276;DHT22;2661;50.786;12.728;2023-04-08T12:45:11;8.20;39.70
5276;DHT22;2661;50.786;12.728;2023-04-08T12:47:38;8.40;45.80
5276;DHT22;2661;50.786;12.728;2023-04-08T12:50:04;8.40;43.60
5276;DHT22;2661;50.786;12.728;2023-04-08T12:52:31;8.30;48.10
5276;DHT22;2661;50.786;12.728;2023-04-08T12:54:58;8.30;34.60
5276;DHT22;2661;50.786;12.728;2023-04-08T12:57:25;8.20;55.30
5276;DHT22;2661;50.786;12.728;2023-04-08T12:59:52;8.20;37.80
5276;DHT22;2661;50.786;12.728;2023-04-08T13:02:19;8.30;46.60
5276;DHT22;2661;50.786;12.728;2023-04-08T13:04:46;8.30;47.20
5276;DHT22;2661;50.786;12.728;2023-04-08T13:07:12;8.50;52.50
5276;DHT22;2661;50.786;12.728;2023-04-08T13:09:39;8.60;39.60
5276;DHT22;2661;50.786;12.728;2023-04-08T13:12:05;8.70;48.00
5276;DHT22;2661;50.786;12.728;2023-04-08T13:14:56;9.00;48.70
5276;DHT22;2661;50.786;12.728;2023-04-08T13:17:24;9.00;41.70
5276;DHT22;2661;50.786;12.728;2023-04-08T13:19:50;9.00;44.90
5276;DHT22;2661;50.786;12.728;2023-04-08T13:22:18;9.10;40.70
5276;DHT22;2661;50.786;12.728;2023-04-08T13:24:44;9.10;44.10
5276;DHT22;2661;50.786;12.728;2023-04-08T13:27:12;9.20;41.00
5276;DHT22;2661;50.786;12.728;2023-04-08T13:29:38;9.10;43.60
5276;DHT22;2661;50.786;12.728;2023-04-08T13:32:05;9.10;52.30
5276;DHT22;2661;50.786;12.728;2023-04-08T13:34:31;8.90;28.00
5276;DHT22;2661;50.786;12.728;2023-04-08T13:36:58;8.80;51.40
5276;DHT22;2661;50.786;12.728;2023-04-08T13:39:24;8.70;46.50
5276;DHT22;2661;50.786;12.728;2023-04-08T13:41:51;8.60;49.40
5276;DHT22;2661;50.786;12.728;2023-04-08T13:44:18;8.50;38.80
5276;DHT22;2661;50.786;12.728;2023-04-08T13:46:44;8.50;45.10
5276;DHT22;2661;50.786;12.728;2023-04-08T13:49:11;8.40;48.60
5276;DHT22;2661;50.786;12.728;2023-04-08T13:51:38;8.40;63.20
5276;DHT22;2661;50.786;12.728;2023-04-08T13:54:05;8.30;55.00
5276;DHT22;2661;50.786;12.728;2023-04-08T13:56:32;8.30;82.80
5276;DHT22;2661;50.786;12.728;2023-04-08T13:58:59;8.20;92.70
5276;DHT22;2661;50.786;12.728;2023-04-08T14:01:26;8.20;84.40
5276;DHT22;2661;50.786;12.728;2023-04-08T14:03:53;8.20;83.80
5276;DHT22;2661;50.786;12.728;2023-04-08T14:06:20;8.20;85.70
5276;DHT22;2661;50.786;12.728;2023-04-08T14:08:47;8.30;88.90
5276;DHT22;2661;50.786;12.728;2023-04-08T14:11:13;8.20;77.70
5276;DHT22;2661;50.786;12.728;2023-04-08T14:13:40;8.30;80.10
5276;DHT22;2661;50.786;12.728;2023-04-08T14:16:07;8.30;83.30
5276;DHT22;2661;50.786;12.728;2023-04-08T14:18:33;8.20;91.70
5276;DHT22;2661;50.786;12.728;2023-04-08T14:21:00;8.20;85.20
5276;DHT22;2661;50.786;12.728;2023-04-08T14:23:28;8.10;94.60
5276;DHT22;2661;50.786;12.728;2023-04-08T14:25:54;8.10;85.20
5276;DHT22;2661;50.786;12.728;2023-04-08T14:28:21;8.10;99.90
5276;DHT22;2661;50.786;12.728;2023-04-08T14:30:47;8.00;82.90
5276;DHT22;2661;50.786;12.728;2023-04-08T14:33:14;8.00;72.50
5276;DHT22;2661;50.786;12.728;2023-04-08T14:35:41;8.10;60.00
5276;DHT22;2661;50.786;12.728;2023-04-08T14:38:07;8.10;74.60
5276;DHT22;2661;50.786;12.728;2023-04-08T14:40:34;8.20;76.60
5276;DHT22;2661;50.786;12.728;2023-04-08T14:43:03;8.20;72.10
5276;DHT22;2661;50.786;12.728;2023-04-08T14:45:29;8.20;90.30
5276;DHT22;2661;50.786;12.728;2023-04-08T14:47:56;8.20;94.70
5276;DHT22;2661;50.786;12.728;2023-04-08T14:50:23;8.20;99.90
5276;DHT22;2661;50.786;12.728;2023-04-08T14:52:49;8.20;92.40
5276;DHT22;2661;50.786;12.728;2023-04-08T14:55:16;8.30;94.70
5276;DHT22;2661;50.786;12.728;2023-04-08T14:57:43;8.20;72.20
5276;DHT22;2661;50.786;12.728;2023-04-08T15:00:10;8.10;99.90
5276;DHT22;2661;50.786;12.728;2023-04-08T15:02:36;8.00;99.90
5276;DHT22;2661;50.786;12.728;2023-04-08T15:05:03;7.90;97.70
5276;DHT22;2661;50.786;12.728;2023-04-08T15:07:30;7.80;81.00
5276;DHT22;2661;50.786;12.728;2023-04-08T15:09:57;7.80;85.40
5276;DHT22;2661;50.786;12.728;2023-04-08T15:12:23;7.70;92.90
5276;DHT22;2661;50.786;12.728;2023-04-08T15:14:50;7.70;90.10
5276;DHT22;2661;50.786;12.728;2023-04-08T15:17:17;7.70;99.90
5276;DHT22;2661;50.786;12.728;2023-04-08T15:19:43;7.70;99.90
5276;DHT22;2661;50.786;12.728;2023-04-08T15:22:10;7.70;99.90
5276;DHT22;2661;50.786;12.728;2023-04-08T15:24:37;7.60;99.90
5276;DHT22;2661;50.786;12.728;2023-04-08T15:27:04;7.60;99.30
5276;DHT22;2661;50.786;12.728;2023-04-08T15:29:31;7.60;97.10
5276;DHT22;2661;50.786;12.728;2023-04-08T15:31:58;7.70;99.10
5276;DHT22;2661;50.786;12.728;2023-04-08T15:34:24;7.70;93.20
5276;DHT22;2661;50.786;12.728;2023-04-08T15:36:51;7.70;99.90
5276;DHT22;2661;50.786;12.728;2023-04-08T15:39:17;7.70;94.20
5276;DHT22;2661;50.786;12.728;2023-04-08T15:41:44;7.70;93.70
5276;DHT22;2661;50.786;12.728;2023-04-08T15:44:10;7.70;99.90
5276;DHT22;2661;50.786;12.728;2023-04-08T15:47:01;7.70;95.90
5276;DHT22;2661;50.786;12.728;2023-04-08T15:49:28;7.70;77.90
5276;DHT22;2661;50.786;12.728;2023-04-08T15:51:55;7.60;66.70
5276;DHT22;2661;50.786;12.728;2023-04-08T15:54:22;7.60;61.70
5276;DHT22;2661;50.786;12.728;2023-04-08T15:56:48;7.60;88.30
5276;DHT22;2661;50.786;12.728;2023-04-08T15:59:15;7.60;91.40
5276;DHT22;2661;50.786;12.728;2023-04-08T16:01:41;7.60;81.00
5276;DHT22;2661;50.786;12.728;2023-04-08T16:04:08;7.60;72.90
5276;DHT22;2661;50.786;12.728;2023-04-08T16:06:35;7.60;80.90
5276;DHT22;2661;50.786;12.728;2023-04-08T16:09:02;7.60;74.90
5276;DHT22;2661;50.786;12.728;2023-04-08T16:11:29;7.60;88.60
5276;DHT22;2661;50.786;12.728;2023-04-08T16:13:55;7.60;65.80
5276;DHT22;2661;50.786;12.728;2023-04-08T16:16:22;7.50;58.00
5276;DHT22;2661;50.786;12.728;2023-04-08T16:18:49;7.60;62.40
5276;DHT22;2661;50.786;12.728;2023-04-08T16:21:16;7.60;66.90
5276;DHT22;2661;50.786;12.728;2023-04-08T16:23:42;7.60;46.70
5276;DHT22;2661;50.786;12.728;2023-04-08T16:26:09;7.60;68.80